Arock, Oregon
Current Conditions -  °F | °C
As of 7:35 AM on Thursday 18 Dec 2014 (Local Time) from KEUL Reporting Station
Overcast Overcast  
Wind Chill: -1°   Ceiling: 4800
Heat Index:   Visibility: 10mi
Dew Point: -3°   Wind: 6mph
Humidity: 70%   Direction: 130°SE
Pressure: 30.1"   Gusts: NA
Location:  42.91°N, 117.53°W
Report Text: KEUL 181435Z AUTO 13005KT 10SM OVC048 02/M03 A3010 RMK AO1
Loading
Personal Weather Stations






























Interactive Weather Map New forecast layout! Learn more

10-Day Weather Forecast

Advertisements
Track Severe Weather on mobile